Orlando, Florida
Current Conditions -  °F | °C
As of 11:53 AM on Saturday 20 Dec 2014 (Local Time) from KORL Reporting Station
Clear Clear  
Wind Chill: 75°   Ceiling: Unl
Heat Index: 75°   Visibility: 10mi
Dew Point: 60°   Wind: 9mph
Humidity: 60%   Direction: 200°SSW
Pressure: 30.1"   Gusts: NA
Location:  28.54°N, 81.38°W
Report Text: KORL 201653Z 20008KT 10SM CLR 24/16 A3010 RMK AO2 SLP196 T02390156
Loading
Personal Weather Stations






























Interactive Weather Map New forecast layout! Learn more

10-Day Weather Forecast

Advertisements
Track Severe Weather on mobile